Time;durP1;ratioP1;P1;durP2;ratioP2;P2;SDS_P1;SDS_P2;PMS_P1;PMS_P2;Temp;Humidity;BMP_temperature;BMP_pressure;BME280_temperature;BME280_humidity;BME280_pressure;Samples;Min_cycle;Max_cycle;Signal;HPM_P1;HPM_P2
2023/09/01 00:00:06;;;;;;;8.30;1.95;;;;;;;19.80;100.00;98966.25;4992078;28;20050;-94
2023/09/01 00:02:32;;;;;;;5.32;2.08;;;;;;;19.94;100.00;99001.34;4993496;28;21257;-94
2023/09/01 00:04:58;;;;;;;4.00;1.42;;;;;;;19.96;100.00;98993.19;4981685;28;20155;-93
2023/09/01 00:07:23;;;;;;;6.65;1.55;;;;;;;19.88;100.00;98986.41;4975792;28;20035;-94
2023/09/01 00:09:50;;;;;;;6.88;1.90;;;;;;;19.78;100.00;98984.38;4994211;28;20039;-93
2023/09/01 00:12:16;;;;;;;7.15;2.30;;;;;;;19.76;100.00;98991.72;4975455;28;20047;-92
2023/09/01 00:14:42;;;;;;;5.65;1.70;;;;;;;19.83;100.00;98987.66;4975298;28;20093;-93
2023/09/01 00:17:12;;;;;;;5.15;1.77;;;;;;;19.89;100.00;98990.84;4976035;28;20508;-93
2023/09/01 00:19:38;;;;;;;;;;;;;;;20.04;100.00;98994.44;4978863;28;20527;-93
2023/09/01 00:22:05;;;;;;;5.38;2.13;;;;;;;19.98;100.00;98988.56;4978966;28;19929;-94
2023/09/01 00:24:32;;;;;;;5.55;1.73;;;;;;;19.76;100.00;98968.28;4976916;28;20046;-92
2023/09/01 00:26:57;;;;;;;5.47;1.67;;;;;;;19.94;100.00;98989.69;4976113;28;20397;-92
2023/09/01 00:29:23;;;;;;;3.85;1.58;;;;;;;19.88;100.00;98986.41;4977082;28;20034;-93
2023/09/01 00:31:50;;;;;;;7.50;2.00;;;;;;;19.74;100.00;98978.31;4975112;28;20391;-93
2023/09/01 00:34:17;;;;;;;3.70;1.58;;;;;;;19.61;100.00;98983.53;4976665;28;20042;-94
2023/09/01 00:36:43;;;;;;;7.43;1.77;;;;;;;19.53;100.00;98988.53;4976596;28;20500;-94
2023/09/01 00:39:09;;;;;;;6.28;2.20;;;;;;;19.46;100.00;98987.16;4979216;28;20501;-93
2023/09/01 00:41:35;;;;;;;4.75;1.65;;;;;;;19.48;100.00;98987.94;4981172;28;20031;-94
2023/09/01 00:44:01;;;;;;;3.47;1.73;;;;;;;19.36;100.00;98985.97;4979220;28;20409;-93
2023/09/01 00:46:27;;;;;;;7.68;1.65;;;;;;;19.18;100.00;98969.06;4999668;28;20039;-93
2023/09/01 00:48:55;;;;;;;6.45;1.52;;;;;;;19.20;100.00;98959.94;4987016;28;20401;-93
2023/09/01 00:51:23;;;;;;;7.35;2.00;;;;;;;19.20;100.00;98983.34;4986842;28;20041;-93
2023/09/01 00:53:49;;;;;;;4.78;1.98;;;;;;;19.12;100.00;98978.38;4975267;28;20077;-93
2023/09/01 00:56:17;;;;;;;5.05;2.00;;;;;;;19.04;100.00;98994.13;4986499;28;20043;-92
2023/09/01 00:58:42;;;;;;;8.13;1.63;;;;;;;18.92;100.00;98984.94;4981911;28;20036;-92
2023/09/01 01:01:08;;;;;;;4.53;1.58;;;;;;;18.91;100.00;98980.53;4978660;28;20400;-94
2023/09/01 01:03:34;;;;;;;6.03;1.75;;;;;;;18.60;100.00;98939.13;4989314;28;20034;-94
2023/09/01 01:06:15;;;;;;;4.03;1.65;;;;;;;18.63;100.00;98973.97;4981435;28;20046;-93
2023/09/01 01:08:56;;;;;;;6.57;1.80;;;;;;;18.65;100.00;98974.75;4981228;28;20098;-93
2023/09/01 01:11:30;;;;;;;8.80;2.00;;;;;;;18.54;100.00;98981.69;4986260;28;20058;-93
2023/09/01 01:14:00;;;;;;;6.07;1.92;;;;;;;18.09;100.00;98926.81;4979570;28;20072;-94
2023/09/01 01:16:28;;;;;;;4.47;1.73;;;;;;;18.30;100.00;98976.72;4983058;28;20050;-93
2023/09/01 01:18:55;;;;;;;3.47;1.98;;;;;;;18.47;100.00;98973.97;4984322;28;20031;-94
2023/09/01 01:21:26;;;;;;;4.68;2.17;;;;;;;18.41;100.00;98990.47;4978094;28;20042;-95
2023/09/01 01:23:54;;;;;;;6.63;1.90;;;;;;;18.13;100.00;98976.78;4980361;28;20073;-94
2023/09/01 01:26:21;;;;;;;5.60;2.20;;;;;;;18.15;100.00;98973.09;4982979;28;20050;-93
2023/09/01 01:28:47;;;;;;;4.30;2.13;;;;;;;17.92;100.00;98971.63;4977187;28;20488;-93
2023/09/01 01:31:13;;;;;;;9.77;1.95;;;;;;;18.02;100.00;98964.81;4988379;28;20041;-94
2023/09/01 01:33:50;;;;;;;5.30;2.30;;;;;;;18.08;100.00;98968.97;4977398;28;20047;-94
2023/09/01 01:36:19;;;;;;;6.10;1.70;;;;;;;17.91;100.00;98936.72;4980093;28;20488;-94
2023/09/01 01:38:49;;;;;;;5.57;1.90;;;;;;;18.04;100.00;98970.97;4981262;28;20050;-92
2023/09/01 01:41:19;;;;;;;3.15;1.67;;;;;;;17.94;100.00;98945.50;4977496;28;20035;-93
2023/09/01 01:43:51;;;;;;;3.33;2.10;;;;;;;17.84;100.00;98944.25;4979809;28;20129;-94
2023/09/01 01:46:17;;;;;;;4.10;1.80;;;;;;;17.91;100.00;98961.81;4980040;28;20487;-94
2023/09/01 01:48:43;;;;;;;4.20;1.90;;;;;;;17.95;100.00;98970.59;4977835;28;20043;-93
2023/09/01 01:51:08;;;;;;;5.38;1.63;;;;;;;17.96;100.00;98958.88;4993213;28;20050;-94
2023/09/01 01:53:36;;;;;;;5.05;2.03;;;;;;;17.84;100.00;98950.50;4978466;28;20043;-93
2023/09/01 01:56:03;;;;;;;5.05;2.28;;;;;;;17.85;100.00;98971.09;4996961;28;20066;-94
2023/09/01 01:58:31;;;;;;;3.85;1.70;;;;;;;18.00;100.00;98976.56;4996548;28;20092;-93
2023/09/01 02:00:57;;;;;;;5.30;1.85;;;;;;;17.71;100.00;98949.41;4978671;28;20046;-94
2023/09/01 02:03:22;;;;;;;6.60;2.03;;;;;;;17.91;100.00;98988.69;4981878;28;20045;-93
2023/09/01 02:05:49;;;;;;;5.25;1.67;;;;;;;17.57;100.00;98922.38;4981147;28;20101;-92
2023/09/01 02:08:14;;;;;;;7.28;1.90;;;;;;;17.37;100.00;98929.69;4984428;28;20073;-94
2023/09/01 02:10:40;;;;;;;4.88;2.28;;;;;;;17.57;100.00;98963.59;4978364;28;20042;-95
2023/09/01 02:13:06;;;;;;;3.88;1.70;;;;;;;17.47;100.00;98997.28;4979513;28;20042;-94
2023/09/01 02:15:33;;;;;;;3.72;1.77;;;;;;;17.38;100.00;98981.63;4978252;28;20488;-94
2023/09/01 02:17:59;;;;;;;3.20;1.75;;;;;;;17.52;100.00;98989.84;4980339;28;20051;-95
2023/09/01 02:20:26;;;;;;;5.93;1.90;;;;;;;17.49;100.00;98971.19;4985773;28;20090;-94
2023/09/01 02:22:54;;;;;;;5.13;1.83;;;;;;;17.19;100.00;98977.19;4991799;28;20142;-93
2023/09/01 02:25:21;;;;;;;3.70;2.15;;;;;;;17.17;100.00;98994.31;5001022;28;20034;-94
2023/09/01 02:27:46;;;;;;;5.30;1.73;;;;;;;17.19;100.00;98954.81;4979868;28;20062;-94
2023/09/01 02:30:13;;;;;;;2.92;1.73;;;;;;;17.56;100.00;98987.84;4977564;28;20092;-94
2023/09/01 02:32:41;;;;;;;4.72;1.83;;;;;;;17.50;100.00;98977.41;4979956;28;20409;-93
2023/09/01 02:35:08;;;;;;;4.93;2.00;;;;;;;17.49;100.00;98973.88;4994642;28;20050;-93
2023/09/01 02:37:34;;;;;;;4.63;2.05;;;;;;;17.45;100.00;98978.53;4977953;28;20070;-93
2023/09/01 02:40:00;;;;;;;3.88;2.05;;;;;;;17.38;100.00;99001.31;4994582;28;20046;-92
2023/09/01 02:42:26;;;;;;;3.58;1.60;;;;;;;17.37;100.00;98993.31;4980222;28;20048;-93
2023/09/01 02:44:52;;;;;;;2.90;1.98;;;;;;;17.31;100.00;98993.66;4994888;28;20121;-94
2023/09/01 02:47:18;;;;;;;3.63;1.75;;;;;;;17.28;100.00;98972.28;4982237;28;20450;-93
2023/09/01 02:49:45;;;;;;;4.65;2.10;;;;;;;17.23;100.00;98957.25;4979718;28;20046;-94
2023/09/01 02:52:11;;;;;;;6.15;2.38;;;;;;;17.31;100.00;98985.59;4994536;28;20066;-94
2023/09/01 02:54:37;;;;;;;5.70;1.98;;;;;;;17.26;100.00;98991.16;4976342;28;20038;-93
2023/09/01 02:57:04;;;;;;;6.10;2.17;;;;;;;17.01;100.00;98943.19;4976811;28;20101;-93
2023/09/01 02:59:29;;;;;;;9.07;4.00;;;;;;;17.22;100.00;98978.88;4978471;28;20039;-93
2023/09/01 03:01:55;;;;;;;3.53;2.15;;;;;;;17.16;100.00;98979.16;4983782;28;20035;-93
2023/09/01 03:04:21;;;;;;;3.85;2.13;;;;;;;17.00;100.00;98971.88;4974164;28;20039;-95
2023/09/01 03:06:48;;;;;;;4.85;2.10;;;;;;;16.95;100.00;98952.41;4979571;28;20046;-94
2023/09/01 03:09:15;;;;;;;5.75;2.15;;;;;;;17.11;100.00;98987.47;4976732;28;20430;-92
2023/09/01 03:11:41;;;;;;;7.38;2.78;;;;;;;16.74;100.00;98926.59;4982558;28;20043;-93
2023/09/01 03:14:07;;;;;;;6.07;2.50;;;;;;;16.84;100.00;98939.53;4979676;28;20073;-92
2023/09/01 03:16:33;;;;;;;3.95;2.05;;;;;;;17.16;100.00;98961.22;4972650;28;20050;-94
2023/09/01 03:18:59;;;;;;;5.40;2.33;;;;;;;16.79;100.00;98957.66;4980624;28;20162;-94
2023/09/01 03:21:30;;;;;;;5.40;2.13;;;;;;;16.80;100.00;98943.31;4976659;28;20444;-94
2023/09/01 03:23:57;;;;;;;3.35;2.10;;;;;;;16.95;100.00;98975.72;4982031;28;20055;-94
2023/09/01 03:26:23;;;;;;;7.53;2.35;;;;;;;16.94;100.00;98977.56;4976601;28;20034;-93
2023/09/01 03:28:49;;;;;;;4.82;2.35;;;;;;;16.82;100.00;98972.78;4994603;28;20042;-95
2023/09/01 03:31:15;;;;;;;5.45;2.50;;;;;;;17.02;100.00;99006.72;4976359;28;20042;-94
2023/09/01 03:33:42;;;;;;;5.32;2.65;;;;;;;16.85;100.00;98978.03;4977417;28;20097;-93
2023/09/01 03:36:08;;;;;;;7.32;2.08;;;;;;;16.99;100.00;99002.38;4979464;28;20088;-94
2023/09/01 03:38:34;;;;;;;4.45;2.03;;;;;;;16.99;100.00;99015.78;4981952;28;20035;-93
2023/09/01 03:41:02;;;;;;;3.70;2.50;;;;;;;16.78;100.00;98976.53;4996122;28;20050;-94
2023/09/01 03:43:28;;;;;;;4.53;2.30;;;;;;;16.58;100.00;98947.97;4976008;28;20049;-94
2023/09/01 03:45:54;;;;;;;8.30;2.60;;;;;;;16.82;100.00;98994.28;4974747;28;20042;-93
2023/09/01 03:48:19;;;;;;;7.55;2.67;;;;;;;16.54;100.00;98967.84;4978908;28;20045;-94
2023/09/01 03:51:04;;;;;;;6.50;2.47;;;;;;;16.87;100.00;98986.84;4977515;28;20045;-93
2023/09/01 03:53:30;;;;;;;3.53;2.15;;;;;;;17.00;100.00;99013.97;4977067;28;20129;-94
2023/09/01 03:55:56;;;;;;;5.18;2.15;;;;;;;16.79;100.00;98987.19;4990201;28;20138;-93
2023/09/01 03:58:23;;;;;;;5.00;2.40;;;;;;;16.72;100.00;98976.81;4983471;28;20067;-93
2023/09/01 04:00:49;;;;;;;5.95;2.42;;;;;;;16.81;100.00;99011.34;4978889;28;20460;-93
2023/09/01 04:03:15;;;;;;;4.25;2.03;;;;;;;16.59;100.00;99017.72;4977187;28;20039;-92
2023/09/01 04:05:41;;;;;;;5.43;2.38;;;;;;;16.49;100.00;98980.63;4976746;28;20051;-93
2023/09/01 04:08:07;;;;;;;3.47;2.10;;;;;;;16.43;100.00;98973.72;4977017;28;20045;-93
2023/09/01 04:10:33;;;;;;;8.35;2.13;;;;;;;16.61;100.00;98999.72;4979676;28;20472;-93
2023/09/01 04:12:59;;;;;;;4.32;2.20;;;;;;;16.60;100.00;98976.47;4993287;28;20531;-94
2023/09/01 04:15:26;;;;;;;4.50;2.22;;;;;;;16.84;100.00;99011.19;4991818;28;20043;-94
2023/09/01 04:17:51;;;;;;;4.60;1.80;;;;;;;16.73;100.00;99016.19;4982765;28;20059;-92
2023/09/01 04:20:17;;;;;;;3.88;1.73;;;;;;;16.42;100.00;99004.22;4998953;28;20047;-92
2023/09/01 04:22:43;;;;;;;5.80;2.50;;;;;;;16.37;100.00;99014.28;4991607;28;20501;-93
2023/09/01 04:25:09;;;;;;;6.97;2.00;;;;;;;16.57;100.00;99027.66;4981467;28;20067;-93
2023/09/01 04:27:35;;;;;;;3.97;2.13;;;;;;;16.34;100.00;99011.75;4976362;28;20049;-93
2023/09/01 04:30:01;;;;;;;9.88;2.67;;;;;;;16.38;100.00;99002.63;4977245;28;20050;-94
2023/09/01 04:32:28;;;;;;;4.90;2.35;;;;;;;16.52;100.00;99023.44;4976190;28;20057;-93
2023/09/01 04:34:54;;;;;;;3.15;2.10;;;;;;;16.54;100.00;99038.50;4976567;28;20049;-92
2023/09/01 04:37:21;;;;;;;5.05;2.13;;;;;;;16.38;100.00;99010.66;4981284;28;20038;-94
2023/09/01 04:39:46;;;;;;;3.40;2.38;;;;;;;16.25;100.00;98988.91;4994925;28;20042;-93
2023/09/01 04:42:12;;;;;;;7.65;2.42;;;;;;;16.49;100.00;99034.31;4974683;28;20098;-93
2023/09/01 04:44:39;;;;;;;5.00;2.25;;;;;;;16.47;100.00;99018.28;4977089;28;20039;-94
2023/09/01 04:47:05;;;;;;;7.35;2.47;;;;;;;16.49;100.00;99020.91;4978630;28;20605;-94
2023/09/01 04:49:32;;;;;;;6.88;2.47;;;;;;;16.52;100.00;99026.13;4980908;28;20045;-94
2023/09/01 04:51:58;;;;;;;10.27;2.28;;;;;;;16.45;100.00;99019.31;4982747;28;20043;-94
2023/09/01 04:54:24;;;;;;;6.43;2.72;;;;;;;16.51;100.00;99029.75;4977354;28;20519;-93
2023/09/01 04:56:49;;;;;;;5.85;2.03;;;;;;;16.39;100.00;99009.72;4977076;28;20125;-94
2023/09/01 04:59:15;;;;;;;7.72;3.20;;;;;;;16.15;100.00;98980.41;4980649;28;21288;-91
2023/09/01 05:01:41;;;;;;;5.22;2.67;;;;;;;16.57;100.00;99048.25;4978790;28;20043;-95
2023/09/01 05:04:07;;;;;;;4.38;1.95;;;;;;;16.63;100.00;99037.22;4974878;28;20400;-93
2023/09/01 05:06:35;;;;;;;8.73;2.22;;;;;;;16.67;100.00;99030.75;4995710;28;20039;-92
2023/09/01 05:09:00;;;;;;;6.10;2.40;;;;;;;16.71;100.00;99029.66;4978901;28;20042;-93
2023/09/01 05:11:26;;;;;;;4.88;2.35;;;;;;;16.59;100.00;98996.22;4994297;28;20051;-95
2023/09/01 05:13:52;;;;;;;4.50;2.17;;;;;;;16.60;100.00;99008.69;4977442;28;20042;-95
2023/09/01 05:16:18;;;;;;;4.25;2.20;;;;;;;16.75;100.00;99044.69;4976537;28;20073;-94
2023/09/01 05:18:44;;;;;;;4.35;2.17;;;;;;;16.81;100.00;99043.56;4993679;28;20039;-93
2023/09/01 05:21:10;;;;;;;6.07;2.13;;;;;;;16.77;100.00;99048.19;4983749;28;20059;-93
2023/09/01 05:23:38;;;;;;;6.55;2.58;;;;;;;16.75;100.00;99039.31;4979154;28;20074;-92
2023/09/01 05:26:04;;;;;;;3.78;2.53;;;;;;;16.78;100.00;99062.47;4983166;28;20051;-92
2023/09/01 05:28:30;;;;;;;5.50;2.58;;;;;;;16.72;100.00;99046.63;4982760;28;20043;-92
2023/09/01 05:30:56;;;;;;;4.93;1.80;;;;;;;16.79;100.00;99065.09;4977704;28;20067;-92
2023/09/01 05:33:22;;;;;;;7.93;2.47;;;;;;;16.78;100.00;99054.41;4987389;28;20436;-93
2023/09/01 05:35:48;;;;;;;3.97;1.92;;;;;;;16.91;100.00;99057.41;4979677;28;20031;-93
2023/09/01 05:38:14;;;;;;;3.33;2.45;;;;;;;17.07;100.00;99077.22;4988157;28;20039;-93
2023/09/01 05:40:41;;;;;;;5.03;2.38;;;;;;;17.06;100.00;99066.53;4987086;28;20102;-92
2023/09/01 05:43:07;;;;;;;8.30;2.67;;;;;;;17.07;100.00;99036.94;4995667;28;20059;-94
2023/09/01 05:45:33;;;;;;;4.55;2.38;;;;;;;17.17;100.00;99048.94;4979531;28;20097;-92
2023/09/01 05:47:59;;;;;;;6.45;2.65;;;;;;;17.37;100.00;99050.66;4980094;28;20038;-93
2023/09/01 05:50:25;;;;;;;6.32;2.92;;;;;;;17.18;100.00;99021.13;4997607;28;20043;-93
2023/09/01 05:52:51;;;;;;;4.20;2.63;;;;;;;17.46;100.00;99043.94;4977956;28;20138;-91
2023/09/01 05:55:17;;;;;;;7.85;2.03;;;;;;;17.57;100.00;99046.09;4989837;28;20046;-91
2023/09/01 05:57:44;;;;;;;7.30;2.45;;;;;;;17.61;100.00;99034.22;4977630;28;20042;-92
2023/09/01 06:00:10;;;;;;;8.18;2.72;;;;;;;17.75;100.00;99053.19;4988309;28;20034;-93
2023/09/01 06:02:36;;;;;;;4.35;2.42;;;;;;;18.03;100.00;99086.75;4977976;28;20046;-93
2023/09/01 06:05:03;;;;;;;5.35;2.70;;;;;;;17.97;100.00;99035.94;4976971;28;20051;-92
2023/09/01 06:07:29;;;;;;;4.47;2.28;;;;;;;18.32;100.00;99063.66;4978155;28;20093;-93
2023/09/01 06:09:55;;;;;;;6.38;2.47;;;;;;;18.31;100.00;99034.16;4980182;28;20420;-94
2023/09/01 06:12:20;;;;;;;5.55;2.53;;;;;;;18.46;100.00;99041.38;4985471;28;20094;-92
2023/09/01 06:14:48;;;;;;;3.95;1.95;;;;;;;18.75;100.00;99068.53;4979702;28;20096;-92
2023/09/01 06:17:13;;;;;;;4.38;1.73;;;;;;;18.71;100.00;99053.47;4977296;28;20075;-93
2023/09/01 06:19:39;;;;;;;4.60;2.20;;;;;;;19.07;100.00;99075.69;4994326;28;20520;-95
2023/09/01 06:22:05;;;;;;;6.25;2.65;;;;;;;19.02;100.00;99061.63;4976936;28;20464;-94
2023/09/01 06:24:31;;;;;;;9.90;2.67;;;;;;;19.06;100.00;99030.84;4993953;28;20058;-93
2023/09/01 06:26:57;;;;;;;5.78;1.90;;;;;;;19.13;100.00;99011.59;4978418;28;20043;-93
2023/09/01 06:29:22;;;;;;;3.58;2.53;;;;;;;19.21;100.00;99038.97;4988633;28;20042;-92
2023/09/01 06:31:50;;;;;;;3.47;2.10;;;;;;;19.36;100.00;99059.66;4975838;28;20038;-92
2023/09/01 06:34:15;;;;;;;5.35;2.08;;;;;;;19.36;100.00;99061.47;4979110;28;20043;-93
2023/09/01 06:36:43;;;;;;;4.72;1.83;;;;;;;19.63;100.00;99084.16;4979547;28;20117;-93
2023/09/01 06:39:10;;;;;;;4.95;1.98;;;;;;;19.47;100.00;99045.53;4979101;28;20046;-93
2023/09/01 06:41:36;;;;;;;13.45;4.97;;;;;;;19.65;100.00;99059.78;4979725;28;20492;-91
2023/09/01 06:44:02;;;;;;;9.18;3.90;;;;;;;19.75;100.00;99044.78;4977104;28;20125;-94
2023/09/01 06:46:28;;;;;;;6.60;3.08;;;;;;;20.00;100.00;99056.81;4977253;28;20120;-95
2023/09/01 06:48:55;;;;;;;4.38;2.47;;;;;;;20.28;100.00;99077.59;4977240;28;20176;-93
2023/09/01 06:51:21;;;;;;;8.57;4.80;;;;;;;20.08;100.00;99030.19;4997687;28;20514;-93
2023/09/01 06:53:47;;;;;;;13.35;5.78;;;;;;;20.37;100.00;99046.44;4976071;28;20050;-92
2023/09/01 06:56:13;;;;;;;6.55;2.38;;;;;;;20.26;100.00;99034.47;4988395;28;20066;-93
2023/09/01 06:58:39;;;;;;;4.47;2.10;;;;;;;20.04;100.00;99039.47;4979776;28;20103;-95
2023/09/01 07:01:08;;;;;;;7.72;1.98;;;;;;;19.81;100.00;99046.25;4977742;28;20039;-93
2023/09/01 07:03:34;;;;;;;3.25;1.70;;;;;;;20.17;100.00;99083.66;4994381;28;20490;-94
2023/09/01 07:06:03;;;;;;;4.00;2.22;;;;;;;20.04;100.00;99044.88;4984725;28;20055;-95
2023/09/01 07:08:29;;;;;;;7.28;2.10;;;;;;;20.40;100.00;99093.00;4977240;28;20038;-93
2023/09/01 07:11:00;;;;;;;6.22;2.17;;;;;;;20.58;100.00;99079.34;4980056;28;20090;-94
2023/09/01 07:13:25;;;;;;;4.82;2.10;;;;;;;20.41;100.00;99053.38;5008580;28;20041;-94
2023/09/01 07:15:51;;;;;;;8.10;2.78;;;;;;;20.82;100.00;99099.41;4975611;28;20038;-94
2023/09/01 07:18:17;;;;;;;6.78;2.08;;;;;;;20.79;100.00;99085.22;4978297;28;20131;-94
2023/09/01 07:20:45;;;;;;;8.75;2.45;;;;;;;20.80;100.00;99108.59;4979822;28;20495;-91
2023/09/01 07:23:13;;;;;;;7.28;2.30;;;;;;;20.75;100.00;99094.47;4989791;28;20524;-93
2023/09/01 07:25:39;;;;;;;5.43;1.98;;;;;;;21.01;100.00;99077.44;4976644;28;20038;-93
2023/09/01 07:28:06;;;;;;;4.57;2.15;;;;;;;21.36;100.00;99090.53;4982022;28;20043;-93
2023/09/01 07:30:32;;;;;;;5.07;1.75;;;;;;;21.34;100.00;99068.09;4975978;28;20137;-93
2023/09/01 07:32:58;;;;;;;4.30;2.17;;;;;;;21.68;100.00;99099.19;4972566;28;20039;-92
2023/09/01 07:35:24;;;;;;;7.32;2.58;;;;;;;21.65;100.00;99066.94;4974847;28;20508;-92
2023/09/01 07:37:50;;;;;;;7.63;1.92;;;;;;;22.11;100.00;99119.78;4992583;28;20532;-92
2023/09/01 07:40:17;;;;;;;8.30;2.95;;;;;;;22.15;100.00;99086.09;4990241;28;20129;-92
2023/09/01 07:42:43;;;;;;;5.80;2.05;;;;;;;22.28;100.00;99111.38;4979176;28;20042;-94
2023/09/01 07:45:09;;;;;;;10.45;2.78;;;;;;;22.59;100.00;99121.91;4976571;28;20477;-94
2023/09/01 07:47:35;;;;;;;6.30;1.90;;;;;;;22.66;100.00;99110.53;4975588;28;20054;-94
2023/09/01 07:50:01;;;;;;;4.10;2.30;;;;;;;22.72;100.00;99110.06;4974376;28;20046;-93
2023/09/01 07:52:28;;;;;;;5.20;1.80;;;;;;;22.76;100.00;99084.47;4979618;28;20042;-94
2023/09/01 07:54:54;;;;;;;4.13;1.95;;;;;;;22.70;100.00;99106.59;4994989;28;20039;-93
2023/09/01 07:57:21;;;;;;;5.65;1.77;;;;;;;22.89;100.00;99099.84;4981941;28;20038;-94
2023/09/01 07:59:47;;;;;;;2.95;1.50;;;;;;;23.14;100.00;99123.38;4982381;28;20043;-94
2023/09/01 08:02:13;;;;;;;6.28;2.28;;;;;;;23.25;100.00;99095.44;4975465;28;20058;-94
2023/09/01 08:04:38;;;;;;;4.20;1.55;;;;;;;23.06;100.00;99050.69;4973922;28;20039;-93
2023/09/01 08:07:05;;;;;;;3.45;1.60;;;;;;;23.41;100.00;99093.31;4980502;28;20133;-94
2023/09/01 08:09:30;;;;;;;4.90;1.90;;;;;;;23.40;100.00;99083.47;4977723;28;20062;-95
2023/09/01 08:11:56;;;;;;;7.88;2.20;;;;;;;23.64;100.00;99110.59;4976047;28;20528;-94
2023/09/01 08:14:23;;;;;;;4.75;1.70;;;;;;;23.59;100.00;99115.50;4976122;28;20063;-92
2023/09/01 08:16:49;;;;;;;4.43;1.88;;;;;;;23.47;100.00;99098.28;4975739;28;20054;-93
2023/09/01 08:19:15;;;;;;;6.95;2.08;;;;;;;22.97;100.00;99082.03;4994355;28;20053;-93
2023/09/01 08:21:41;;;;;;;5.75;2.13;;;;;;;23.31;100.00;99101.28;4992320;28;20038;-92
2023/09/01 08:24:07;;;;;;;8.38;2.88;;;;;;;23.34;100.00;99098.34;4977091;28;20476;-93
2023/09/01 08:26:33;;;;;;;6.85;2.53;;;;;;;23.44;100.00;99084.94;4992458;28;20050;-94
2023/09/01 08:28:59;;;;;;;5.80;1.90;;;;;;;23.71;100.00;99111.88;4978336;28;20058;-93
2023/09/01 08:31:26;;;;;;;4.53;2.13;;;;;;;23.86;100.00;99106.28;4992913;28;20404;-94
2023/09/01 08:33:54;;;;;;;6.28;1.83;;;;;;;24.04;100.00;99117.59;4974936;28;20441;-93
2023/09/01 08:36:21;;;;;;;3.30;1.58;;;;;;;23.92;100.00;99076.81;4975290;28;20531;-93
2023/09/01 08:38:47;;;;;;;3.15;1.52;;;;;;;24.22;100.00;99088.97;4992114;28;20050;-93
2023/09/01 08:41:13;;;;;;;5.30;1.60;;;;;;;24.33;100.00;99097.16;4985525;28;20038;-94
2023/09/01 08:43:39;;;;;;;3.28;1.80;;;;;;;24.45;100.00;99083.59;4992995;28;20493;-95
2023/09/01 08:46:05;;;;;;;6.22;1.50;;;;;;;24.27;100.00;99088.63;4979608;28;20038;-93
2023/09/01 08:48:33;;;;;;;6.03;2.03;;;;;;;23.94;100.00;99118.31;4978318;28;20105;-93
2023/09/01 08:51:03;;;;;;;3.92;2.03;;;;;;;24.25;100.00;99096.91;4978036;28;20497;-94
2023/09/01 08:53:29;;;;;;;;;;;;;;;24.63;100.00;99113.91;4974692;28;20038;-95
2023/09/01 08:55:55;;;;;;;4.00;1.42;;;;;;;24.32;99.03;99081.81;5011803;28;20324;-94
2023/09/01 08:58:21;;;;;;;6.93;2.08;;;;;;;24.33;94.71;99089.00;4974833;28;20039;-93
2023/09/01 09:00:47;;;;;;;3.50;1.65;;;;;;;24.09;94.08;99080.91;4983746;28;20042;-92
2023/09/01 09:03:14;;;;;;;3.50;1.73;;;;;;;23.96;99.38;99105.47;4979809;28;20129;-92
2023/09/01 09:05:41;;;;;;;5.10;1.73;;;;;;;24.38;99.59;99088.66;4978981;28;20069;-93
2023/09/01 09:08:08;;;;;;;3.15;1.70;;;;;;;24.73;97.30;99074.97;4985132;28;20087;-93
2023/09/01 09:10:35;;;;;;;5.38;2.13;;;;;;;25.08;93.46;99086.69;4981676;28;20061;-93
2023/09/01 09:13:00;;;;;;;7.03;1.73;;;;;;;25.08;95.34;99081.25;4981262;28;20042;-94
2023/09/01 09:15:26;;;;;;;7.70;1.67;;;;;;;25.15;91.93;99083.31;4979714;28;20050;-94
2023/09/01 09:17:52;;;;;;;4.30;1.75;;;;;;;24.98;92.43;99071.13;4982149;28;20058;-92
2023/09/01 09:20:19;;;;;;;8.60;1.60;;;;;;;25.19;93.03;99081.22;4979407;28;20400;-93
2023/09/01 09:22:51;;;;;;;8.57;1.60;;;;;;;25.53;91.18;99094.81;4977505;28;20043;-94
2023/09/01 09:25:25;;;;;;;5.72;1.33;;;;;;;25.77;88.74;99097.31;4982082;28;20390;-91
2023/09/01 09:27:50;;;;;;;9.52;2.05;;;;;;;25.09;91.75;99086.59;4993703;28;20130;-94
2023/09/01 09:30:16;;;;;;;5.93;1.83;;;;;;;25.50;91.08;99081.44;4975074;28;20039;-93
2023/09/01 09:32:42;;;;;;;5.25;1.80;;;;;;;25.79;88.05;99090.72;4979625;28;20089;-94
2023/09/01 09:35:10;;;;;;;5.45;1.95;;;;;;;26.01;87.53;99091.66;4980729;28;20035;-93
2023/09/01 09:37:37;;;;;;;4.53;1.83;;;;;;;25.91;85.88;99050.69;4982859;28;20085;-94
2023/09/01 09:40:13;;;;;;;4.05;1.60;;;;;;;26.14;85.06;99070.53;4979692;28;20057;-93
2023/09/01 09:42:41;;;;;;;5.53;2.10;;;;;;;26.12;88.43;99030.78;4981879;28;20089;-94
2023/09/01 09:45:21;;;;;;;6.95;1.85;;;;;;;26.36;84.33;99083.13;4978918;28;21452;-93
2023/09/01 09:47:48;;;;;;;2.97;2.05;;;;;;;26.36;85.27;99061.31;4978938;28;20105;-92
2023/09/01 09:50:16;;;;;;;4.60;1.77;;;;;;;25.38;86.56;99058.81;4996321;28;20042;-93
2023/09/01 09:52:43;;;;;;;5.78;1.98;;;;;;;25.82;86.90;99078.72;4983567;28;20404;-93
2023/09/01 09:55:13;;;;;;;6.60;1.98;;;;;;;26.03;83.63;99076.91;4981761;28;20396;-93
2023/09/01 09:57:40;;;;;;;5.13;1.98;;;;;;;26.14;82.91;99072.38;4978945;28;20062;-94
2023/09/01 10:00:10;;;;;;;7.72;2.22;;;;;;;25.90;83.15;99027.19;4978349;28;20410;-93
2023/09/01 10:02:40;;;;;;;3.30;1.73;;;;;;;25.47;83.75;99057.19;4983574;28;20042;-95
2023/09/01 10:05:08;;;;;;;7.10;2.25;;;;;;;25.96;85.69;99081.16;4977040;28;20070;-92
2023/09/01 10:07:34;;;;;;;4.40;1.80;;;;;;;25.97;84.43;99074.69;4996628;28;20043;-92
2023/09/01 10:10:00;;;;;;;4.75;1.40;;;;;;;26.18;83.01;99035.69;4980714;28;20042;-91
2023/09/01 10:12:28;;;;;;;3.30;1.58;;;;;;;26.26;81.09;99054.94;4979017;28;20043;-93
2023/09/01 10:14:55;;;;;;;5.38;1.90;;;;;;;26.15;80.00;99055.03;4981681;28;20042;-94
2023/09/01 10:17:22;;;;;;;5.70;2.22;;;;;;;26.23;81.94;99047.03;4983209;28;20058;-93
2023/09/01 10:19:48;;;;;;;4.47;2.10;;;;;;;26.52;79.54;99060.81;4985949;28;20049;-93
2023/09/01 10:22:15;;;;;;;5.57;2.28;;;;;;;26.75;80.27;99060.69;4980770;28;20572;-92
2023/09/01 10:25:07;;;;;;;4.90;1.77;;;;;;;26.66;80.16;99058.78;4977413;28;20497;-92
2023/09/01 10:27:35;;;;;;;7.95;2.40;;;;;;;26.48;79.12;99044.88;4976207;28;20039;-94
2023/09/01 10:30:01;;;;;;;6.35;2.15;;;;;;;26.50;81.32;99075.59;4977140;28;20034;-92
2023/09/01 10:32:28;;;;;;;8.40;1.63;;;;;;;26.40;76.62;99079.16;4995299;28;20053;-93
2023/09/01 10:34:55;;;;;;;3.05;1.50;;;;;;;26.48;78.12;99043.03;4979020;28;20400;-93
2023/09/01 10:37:26;;;;;;;6.50;2.10;;;;;;;26.49;74.53;99031.13;4988048;28;20037;-92
2023/09/01 10:39:52;;;;;;;5.40;1.48;;;;;;;26.53;78.07;99062.56;4981317;28;20070;-92
2023/09/01 10:42:39;;;;;;;8.85;2.13;;;;;;;26.26;75.42;99068.56;4978044;28;20448;-91
2023/09/01 10:45:08;;;;;;;;;;;;;;;26.29;78.26;99076.50;5012051;28;20092;-94
2023/09/01 10:47:46;;;;;;;3.40;1.70;;;;;;;26.30;77.33;99061.84;4995623;28;19929;-94
2023/09/01 10:50:13;;;;;;;4.88;1.95;;;;;;;25.48;78.35;99021.69;4997942;28;20046;-93
2023/09/01 10:52:39;;;;;;;6.05;2.38;;;;;;;25.78;77.76;99053.56;4977698;28;20039;-94
2023/09/01 10:55:06;;;;;;;7.82;1.90;;;;;;;25.76;79.68;99050.16;5012041;28;20034;-93
2023/09/01 10:57:41;;;;;;;3.90;2.03;;;;;;;25.68;81.39;99071.72;4981583;28;20038;-92
2023/09/01 11:00:29;;;;;;;4.53;1.60;;;;;;;25.74;77.54;99062.16;4982306;28;20074;-93
2023/09/01 11:03:25;;;;;;;6.38;1.77;;;;;;;25.71;75.42;99032.47;4972163;28;20047;-95
2023/09/01 11:05:55;;;;;;;5.13;2.25;;;;;;;25.99;80.24;99045.47;4996516;28;20046;-93
2023/09/01 11:08:21;;;;;;;;;;;;;;;26.41;76.99;99055.47;4989950;28;20086;-92
2023/09/01 11:10:46;;;;;;;4.20;1.63;;;;;;;26.44;75.51;99044.31;4993956;28;20303;-92
2023/09/01 11:13:15;;;;;;;4.32;2.22;;;;;;;26.44;76.51;99038.84;4996976;28;20053;-92
2023/09/01 11:15:45;;;;;;;5.50;1.88;;;;;;;26.50;73.79;99049.22;4984656;28;20134;-92
2023/09/01 11:18:19;;;;;;;5.63;1.85;;;;;;;26.55;75.25;99049.66;4981633;28;20055;-93
2023/09/01 11:20:45;;;;;;;4.15;1.83;;;;;;;26.70;71.96;99039.28;4992223;28;20051;-93
2023/09/01 11:23:11;;;;;;;2.92;1.40;;;;;;;26.20;69.29;99022.78;4975325;28;20050;-95
2023/09/01 11:25:37;;;;;;;3.88;1.60;;;;;;;26.28;73.52;99035.72;4977379;28;20567;-93